sensor_id;sensor_type;location;lat;lon;timestamp;P1;durP1;ratioP1;P2;durP2;ratioP2
22937;SDS011;11634;42.734;23.298;2023-07-09T00:01:15;5.45;;;3.20;;
22937;SDS011;11634;42.734;23.298;2023-07-09T00:03:43;6.50;;;2.78;;
22937;SDS011;11634;42.734;23.298;2023-07-09T00:06:10;5.28;;;3.72;;
22937;SDS011;11634;42.734;23.298;2023-07-09T00:08:38;3.60;;;2.72;;
22937;SDS011;11634;42.734;23.298;2023-07-09T00:11:17;5.20;;;3.15;;
22937;SDS011;11634;42.734;23.298;2023-07-09T00:13:43;5.05;;;3.03;;
22937;SDS011;11634;42.734;23.298;2023-07-09T00:16:42;6.35;;;3.08;;
22937;SDS011;11634;42.734;23.298;2023-07-09T00:19:02;4.70;;;2.95;;
22937;SDS011;11634;42.734;23.298;2023-07-09T00:21:28;6.15;;;3.03;;
22937;SDS011;11634;42.734;23.298;2023-07-09T00:23:59;6.70;;;3.40;;
22937;SDS011;11634;42.734;23.298;2023-07-09T00:26:33;3.92;;;3.10;;
22937;SDS011;11634;42.734;23.298;2023-07-09T00:28:59;4.70;;;3.40;;
22937;SDS011;11634;42.734;23.298;2023-07-09T00:31:26;7.75;;;3.65;;
22937;SDS011;11634;42.734;23.298;2023-07-09T00:33:52;5.68;;;3.53;;
22937;SDS011;11634;42.734;23.298;2023-07-09T00:36:27;3.53;;;2.92;;
22937;SDS011;11634;42.734;23.298;2023-07-09T00:38:56;5.20;;;3.38;;
22937;SDS011;11634;42.734;23.298;2023-07-09T00:41:24;6.78;;;3.25;;
22937;SDS011;11634;42.734;23.298;2023-07-09T00:43:51;6.80;;;3.58;;
22937;SDS011;11634;42.734;23.298;2023-07-09T00:49:07;7.60;;;3.22;;
22937;SDS011;11634;42.734;23.298;2023-07-09T00:51:37;5.65;;;3.20;;
22937;SDS011;11634;42.734;23.298;2023-07-09T00:54:27;5.15;;;3.42;;
22937;SDS011;11634;42.734;23.298;2023-07-09T00:56:58;7.45;;;3.45;;
22937;SDS011;11634;42.734;23.298;2023-07-09T00:59:27;5.47;;;3.33;;
22937;SDS011;11634;42.734;23.298;2023-07-09T01:01:57;6.72;;;3.55;;
22937;SDS011;11634;42.734;23.298;2023-07-09T01:04:25;6.13;;;3.40;;
22937;SDS011;11634;42.734;23.298;2023-07-09T01:06:54;6.50;;;3.70;;
22937;SDS011;11634;42.734;23.298;2023-07-09T01:09:22;4.57;;;3.30;;
22937;SDS011;11634;42.734;23.298;2023-07-09T01:11:49;4.10;;;3.17;;
22937;SDS011;11634;42.734;23.298;2023-07-09T01:14:16;4.95;;;3.60;;
22937;SDS011;11634;42.734;23.298;2023-07-09T01:16:48;7.55;;;3.33;;
22937;SDS011;11634;42.734;23.298;2023-07-09T01:19:25;7.65;;;3.70;;
22937;SDS011;11634;42.734;23.298;2023-07-09T01:21:56;4.93;;;3.20;;
22937;SDS011;11634;42.734;23.298;2023-07-09T01:27:13;5.82;;;3.65;;
22937;SDS011;11634;42.734;23.298;2023-07-09T01:29:39;4.85;;;3.10;;
22937;SDS011;11634;42.734;23.298;2023-07-09T01:32:05;6.95;;;3.42;;
22937;SDS011;11634;42.734;23.298;2023-07-09T01:34:32;7.65;;;3.70;;
22937;SDS011;11634;42.734;23.298;2023-07-09T01:36:58;6.13;;;3.28;;
22937;SDS011;11634;42.734;23.298;2023-07-09T01:39:25;7.40;;;3.05;;
22937;SDS011;11634;42.734;23.298;2023-07-09T01:41:53;7.82;;;3.25;;
22937;SDS011;11634;42.734;23.298;2023-07-09T01:44:19;3.92;;;3.45;;
22937;SDS011;11634;42.734;23.298;2023-07-09T01:46:45;4.90;;;4.15;;
22937;SDS011;11634;42.734;23.298;2023-07-09T01:49:11;4.43;;;3.47;;
22937;SDS011;11634;42.734;23.298;2023-07-09T01:51:36;10.93;;;4.38;;
22937;SDS011;11634;42.734;23.298;2023-07-09T01:54:03;7.60;;;3.90;;
22937;SDS011;11634;42.734;23.298;2023-07-09T01:56:29;6.57;;;3.65;;
22937;SDS011;11634;42.734;23.298;2023-07-09T01:58:55;5.60;;;3.78;;
22937;SDS011;11634;42.734;23.298;2023-07-09T02:01:28;6.93;;;4.20;;
22937;SDS011;11634;42.734;23.298;2023-07-09T02:03:54;4.28;;;3.88;;
22937;SDS011;11634;42.734;23.298;2023-07-09T02:06:20;5.55;;;4.22;;
22937;SDS011;11634;42.734;23.298;2023-07-09T02:08:45;5.25;;;4.32;;
22937;SDS011;11634;42.734;23.298;2023-07-09T02:11:11;7.97;;;3.72;;
22937;SDS011;11634;42.734;23.298;2023-07-09T02:13:37;4.47;;;3.78;;
22937;SDS011;11634;42.734;23.298;2023-07-09T02:16:03;8.05;;;4.40;;
22937;SDS011;11634;42.734;23.298;2023-07-09T02:18:29;4.78;;;4.30;;
22937;SDS011;11634;42.734;23.298;2023-07-09T02:20:54;6.90;;;4.32;;
22937;SDS011;11634;42.734;23.298;2023-07-09T02:23:24;7.28;;;3.88;;
22937;SDS011;11634;42.734;23.298;2023-07-09T02:25:51;4.97;;;3.85;;
22937;SDS011;11634;42.734;23.298;2023-07-09T02:28:17;6.28;;;4.10;;
22937;SDS011;11634;42.734;23.298;2023-07-09T02:30:43;7.10;;;4.20;;
22937;SDS011;11634;42.734;23.298;2023-07-09T02:33:08;6.13;;;4.20;;
22937;SDS011;11634;42.734;23.298;2023-07-09T02:35:36;11.10;;;4.38;;
22937;SDS011;11634;42.734;23.298;2023-07-09T02:38:02;8.35;;;4.18;;
22937;SDS011;11634;42.734;23.298;2023-07-09T02:40:28;5.38;;;4.40;;
22937;SDS011;11634;42.734;23.298;2023-07-09T02:42:57;6.68;;;4.80;;
22937;SDS011;11634;42.734;23.298;2023-07-09T02:45:22;5.95;;;4.35;;
22937;SDS011;11634;42.734;23.298;2023-07-09T02:47:48;6.80;;;4.00;;
22937;SDS011;11634;42.734;23.298;2023-07-09T02:50:14;7.18;;;4.13;;
22937;SDS011;11634;42.734;23.298;2023-07-09T02:52:40;5.10;;;4.28;;
22937;SDS011;11634;42.734;23.298;2023-07-09T02:55:07;5.85;;;4.32;;
22937;SDS011;11634;42.734;23.298;2023-07-09T02:57:33;7.20;;;4.18;;
22937;SDS011;11634;42.734;23.298;2023-07-09T02:59:59;5.32;;;4.18;;
22937;SDS011;11634;42.734;23.298;2023-07-09T03:02:25;7.93;;;4.47;;
22937;SDS011;11634;42.734;23.298;2023-07-09T03:04:51;5.63;;;4.15;;
22937;SDS011;11634;42.734;23.298;2023-07-09T03:07:17;8.02;;;4.28;;
22937;SDS011;11634;42.734;23.298;2023-07-09T03:09:43;7.78;;;3.80;;
22937;SDS011;11634;42.734;23.298;2023-07-09T03:12:08;5.60;;;4.55;;
22937;SDS011;11634;42.734;23.298;2023-07-09T03:14:35;8.38;;;4.85;;
22937;SDS011;11634;42.734;23.298;2023-07-09T03:17:01;5.68;;;3.80;;
22937;SDS011;11634;42.734;23.298;2023-07-09T03:19:27;7.00;;;3.95;;
22937;SDS011;11634;42.734;23.298;2023-07-09T03:21:52;6.60;;;3.75;;
22937;SDS011;11634;42.734;23.298;2023-07-09T03:24:21;8.45;;;4.50;;
22937;SDS011;11634;42.734;23.298;2023-07-09T03:26:47;6.55;;;4.00;;
22937;SDS011;11634;42.734;23.298;2023-07-09T03:29:15;8.52;;;4.32;;
22937;SDS011;11634;42.734;23.298;2023-07-09T03:31:41;6.72;;;4.18;;
22937;SDS011;11634;42.734;23.298;2023-07-09T03:34:06;10.27;;;4.00;;
22937;SDS011;11634;42.734;23.298;2023-07-09T03:36:32;6.93;;;3.70;;
22937;SDS011;11634;42.734;23.298;2023-07-09T03:38:57;5.20;;;3.95;;
22937;SDS011;11634;42.734;23.298;2023-07-09T03:41:23;6.40;;;4.00;;
22937;SDS011;11634;42.734;23.298;2023-07-09T03:43:50;8.18;;;4.10;;
22937;SDS011;11634;42.734;23.298;2023-07-09T03:46:17;5.28;;;4.35;;
22937;SDS011;11634;42.734;23.298;2023-07-09T03:48:44;6.88;;;4.50;;
22937;SDS011;11634;42.734;23.298;2023-07-09T03:51:10;7.07;;;4.38;;
22937;SDS011;11634;42.734;23.298;2023-07-09T03:53:35;6.53;;;3.85;;
22937;SDS011;11634;42.734;23.298;2023-07-09T03:56:01;9.13;;;4.05;;
22937;SDS011;11634;42.734;23.298;2023-07-09T03:58:27;8.70;;;4.35;;
22937;SDS011;11634;42.734;23.298;2023-07-09T04:00:53;8.80;;;3.58;;
22937;SDS011;11634;42.734;23.298;2023-07-09T04:03:20;8.50;;;3.88;;
22937;SDS011;11634;42.734;23.298;2023-07-09T04:05:46;7.18;;;4.13;;
22937;SDS011;11634;42.734;23.298;2023-07-09T04:08:15;7.07;;;3.75;;
22937;SDS011;11634;42.734;23.298;2023-07-09T04:10:41;5.38;;;3.83;;
22937;SDS011;11634;42.734;23.298;2023-07-09T04:13:07;7.38;;;3.55;;
22937;SDS011;11634;42.734;23.298;2023-07-09T04:15:32;6.85;;;3.67;;
22937;SDS011;11634;42.734;23.298;2023-07-09T04:17:58;5.50;;;3.45;;
22937;SDS011;11634;42.734;23.298;2023-07-09T04:20:23;5.10;;;3.70;;
22937;SDS011;11634;42.734;23.298;2023-07-09T04:22:49;5.63;;;3.88;;
22937;SDS011;11634;42.734;23.298;2023-07-09T04:25:15;6.75;;;3.80;;
22937;SDS011;11634;42.734;23.298;2023-07-09T04:27:42;4.88;;;3.60;;
22937;SDS011;11634;42.734;23.298;2023-07-09T04:30:12;4.28;;;3.40;;
22937;SDS011;11634;42.734;23.298;2023-07-09T04:32:40;8.85;;;3.55;;
22937;SDS011;11634;42.734;23.298;2023-07-09T04:35:10;11.75;;;3.75;;
22937;SDS011;11634;42.734;23.298;2023-07-09T04:37:38;7.72;;;3.75;;
22937;SDS011;11634;42.734;23.298;2023-07-09T04:40:06;6.45;;;4.22;;
22937;SDS011;11634;42.734;23.298;2023-07-09T04:42:38;7.60;;;3.90;;
22937;SDS011;11634;42.734;23.298;2023-07-09T04:45:05;6.72;;;3.15;;
22937;SDS011;11634;42.734;23.298;2023-07-09T04:47:32;7.50;;;3.97;;
22937;SDS011;11634;42.734;23.298;2023-07-09T04:49:57;8.27;;;4.00;;
22937;SDS011;11634;42.734;23.298;2023-07-09T04:52:23;13.38;;;8.57;;
22937;SDS011;11634;42.734;23.298;2023-07-09T04:54:51;5.43;;;3.65;;
22937;SDS011;11634;42.734;23.298;2023-07-09T04:57:17;6.25;;;3.42;;
22937;SDS011;11634;42.734;23.298;2023-07-09T04:59:43;4.05;;;3.55;;
22937;SDS011;11634;42.734;23.298;2023-07-09T05:02:09;6.03;;;3.33;;
22937;SDS011;11634;42.734;23.298;2023-07-09T05:04:34;5.80;;;4.13;;
22937;SDS011;11634;42.734;23.298;2023-07-09T05:07:00;8.43;;;4.25;;
22937;SDS011;11634;42.734;23.298;2023-07-09T05:09:26;10.95;;;5.47;;
22937;SDS011;11634;42.734;23.298;2023-07-09T05:11:51;10.48;;;6.22;;
22937;SDS011;11634;42.734;23.298;2023-07-09T05:14:17;6.88;;;4.38;;
22937;SDS011;11634;42.734;23.298;2023-07-09T05:16:43;7.25;;;4.50;;
22937;SDS011;11634;42.734;23.298;2023-07-09T05:19:10;6.78;;;4.45;;
22937;SDS011;11634;42.734;23.298;2023-07-09T05:21:36;9.48;;;4.70;;
22937;SDS011;11634;42.734;23.298;2023-07-09T05:24:03;4.57;;;4.13;;
22937;SDS011;11634;42.734;23.298;2023-07-09T05:26:31;9.75;;;5.25;;
22937;SDS011;11634;42.734;23.298;2023-07-09T05:28:58;6.68;;;4.05;;
22937;SDS011;11634;42.734;23.298;2023-07-09T05:31:24;5.72;;;3.85;;
22937;SDS011;11634;42.734;23.298;2023-07-09T05:33:49;8.23;;;3.90;;
22937;SDS011;11634;42.734;23.298;2023-07-09T05:36:21;7.47;;;3.95;;
22937;SDS011;11634;42.734;23.298;2023-07-09T05:38:46;5.60;;;3.67;;
22937;SDS011;11634;42.734;23.298;2023-07-09T05:41:12;8.30;;;3.88;;
22937;SDS011;11634;42.734;23.298;2023-07-09T05:43:42;6.30;;;4.35;;
22937;SDS011;11634;42.734;23.298;2023-07-09T05:46:09;4.60;;;3.78;;
22937;SDS011;11634;42.734;23.298;2023-07-09T05:48:36;4.82;;;3.70;;
22937;SDS011;11634;42.734;23.298;2023-07-09T05:51:01;5.45;;;3.88;;
22937;SDS011;11634;42.734;23.298;2023-07-09T05:53:27;5.18;;;4.22;;
22937;SDS011;11634;42.734;23.298;2023-07-09T05:55:53;4.18;;;3.55;;
22937;SDS011;11634;42.734;23.298;2023-07-09T05:58:20;9.85;;;3.72;;
22937;SDS011;11634;42.734;23.298;2023-07-09T06:00:45;6.55;;;3.47;;
22937;SDS011;11634;42.734;23.298;2023-07-09T06:03:11;6.78;;;3.47;;
22937;SDS011;11634;42.734;23.298;2023-07-09T06:05:39;5.75;;;3.75;;
22937;SDS011;11634;42.734;23.298;2023-07-09T06:08:09;6.20;;;3.53;;
22937;SDS011;11634;42.734;23.298;2023-07-09T06:10:34;7.55;;;3.75;;
22937;SDS011;11634;42.734;23.298;2023-07-09T06:13:00;5.05;;;3.63;;
22937;SDS011;11634;42.734;23.298;2023-07-09T06:15:26;5.38;;;3.65;;
22937;SDS011;11634;42.734;23.298;2023-07-09T06:17:51;9.70;;;4.00;;
22937;SDS011;11634;42.734;23.298;2023-07-09T06:20:25;6.82;;;3.83;;
22937;SDS011;11634;42.734;23.298;2023-07-09T06:22:51;6.00;;;3.85;;
22937;SDS011;11634;42.734;23.298;2023-07-09T06:25:17;6.07;;;3.70;;
22937;SDS011;11634;42.734;23.298;2023-07-09T06:27:42;5.55;;;3.72;;
22937;SDS011;11634;42.734;23.298;2023-07-09T06:30:08;7.50;;;3.38;;
22937;SDS011;11634;42.734;23.298;2023-07-09T06:32:34;4.93;;;3.38;;
22937;SDS011;11634;42.734;23.298;2023-07-09T06:35:00;5.88;;;3.75;;
22937;SDS011;11634;42.734;23.298;2023-07-09T06:37:26;4.03;;;3.40;;
22937;SDS011;11634;42.734;23.298;2023-07-09T06:39:51;5.10;;;3.63;;
22937;SDS011;11634;42.734;23.298;2023-07-09T06:42:17;5.78;;;3.65;;
22937;SDS011;11634;42.734;23.298;2023-07-09T06:45:09;7.30;;;3.45;;
22937;SDS011;11634;42.734;23.298;2023-07-09T06:47:38;4.93;;;3.40;;
22937;SDS011;11634;42.734;23.298;2023-07-09T06:50:03;8.07;;;3.20;;
22937;SDS011;11634;42.734;23.298;2023-07-09T06:52:29;8.18;;;3.40;;
22937;SDS011;11634;42.734;23.298;2023-07-09T06:54:55;5.10;;;3.25;;
22937;SDS011;11634;42.734;23.298;2023-07-09T06:57:20;7.30;;;3.83;;
22937;SDS011;11634;42.734;23.298;2023-07-09T06:59:46;4.45;;;3.60;;
22937;SDS011;11634;42.734;23.298;2023-07-09T07:02:12;6.13;;;3.72;;
22937;SDS011;11634;42.734;23.298;2023-07-09T07:04:38;10.25;;;3.92;;
22937;SDS011;11634;42.734;23.298;2023-07-09T07:07:04;4.65;;;3.78;;
22937;SDS011;11634;42.734;23.298;2023-07-09T07:09:30;6.00;;;4.05;;
22937;SDS011;11634;42.734;23.298;2023-07-09T07:11:57;5.60;;;3.72;;
22937;SDS011;11634;42.734;23.298;2023-07-09T07:14:23;8.10;;;4.07;;
22937;SDS011;11634;42.734;23.298;2023-07-09T07:16:48;4.50;;;3.30;;
22937;SDS011;11634;42.734;23.298;2023-07-09T07:19:15;5.40;;;3.20;;
22937;SDS011;11634;42.734;23.298;2023-07-09T07:21:41;5.82;;;3.42;;
22937;SDS011;11634;42.734;23.298;2023-07-09T07:24:06;7.65;;;3.42;;
22937;SDS011;11634;42.734;23.298;2023-07-09T07:26:32;7.00;;;3.35;;
22937;SDS011;11634;42.734;23.298;2023-07-09T07:28:58;4.63;;;3.90;;
22937;SDS011;11634;42.734;23.298;2023-07-09T07:31:24;4.40;;;3.22;;
22937;SDS011;11634;42.734;23.298;2023-07-09T07:33:50;8.18;;;3.58;;
22937;SDS011;11634;42.734;23.298;2023-07-09T07:36:16;5.38;;;3.63;;
22937;SDS011;11634;42.734;23.298;2023-07-09T07:38:41;5.63;;;3.40;;
22937;SDS011;11634;42.734;23.298;2023-07-09T07:41:07;8.75;;;3.45;;
22937;SDS011;11634;42.734;23.298;2023-07-09T07:43:33;5.50;;;3.08;;
22937;SDS011;11634;42.734;23.298;2023-07-09T07:45:58;9.88;;;3.67;;
22937;SDS011;11634;42.734;23.298;2023-07-09T07:48:24;4.43;;;3.53;;
22937;SDS011;11634;42.734;23.298;2023-07-09T07:50:50;5.95;;;3.47;;
22937;SDS011;11634;42.734;23.298;2023-07-09T07:53:15;5.70;;;3.55;;
22937;SDS011;11634;42.734;23.298;2023-07-09T07:55:41;9.13;;;3.65;;
22937;SDS011;11634;42.734;23.298;2023-07-09T07:58:11;5.68;;;3.40;;
22937;SDS011;11634;42.734;23.298;2023-07-09T08:00:38;3.70;;;3.03;;
22937;SDS011;11634;42.734;23.298;2023-07-09T08:03:04;3.60;;;3.10;;
22937;SDS011;11634;42.734;23.298;2023-07-09T08:05:30;3.30;;;3.00;;
22937;SDS011;11634;42.734;23.298;2023-07-09T08:07:55;4.35;;;3.10;;
22937;SDS011;11634;42.734;23.298;2023-07-09T08:10:21;5.40;;;3.10;;
22937;SDS011;11634;42.734;23.298;2023-07-09T08:12:47;4.60;;;2.97;;
22937;SDS011;11634;42.734;23.298;2023-07-09T08:15:16;4.40;;;3.33;;
22937;SDS011;11634;42.734;23.298;2023-07-09T08:17:46;7.07;;;3.17;;
22937;SDS011;11634;42.734;23.298;2023-07-09T08:20:11;6.90;;;3.30;;
22937;SDS011;11634;42.734;23.298;2023-07-09T08:22:37;4.82;;;3.65;;
22937;SDS011;11634;42.734;23.298;2023-07-09T08:25:03;5.40;;;3.20;;
22937;SDS011;11634;42.734;23.298;2023-07-09T08:27:29;3.97;;;3.10;;
22937;SDS011;11634;42.734;23.298;2023-07-09T08:29:55;4.15;;;3.17;;
22937;SDS011;11634;42.734;23.298;2023-07-09T08:32:21;6.18;;;3.13;;
22937;SDS011;11634;42.734;23.298;2023-07-09T08:34:46;5.15;;;3.40;;
22937;SDS011;11634;42.734;23.298;2023-07-09T08:37:12;5.70;;;3.30;;
22937;SDS011;11634;42.734;23.298;2023-07-09T08:39:37;5.50;;;3.35;;
22937;SDS011;11634;42.734;23.298;2023-07-09T08:42:04;6.05;;;3.72;;
22937;SDS011;11634;42.734;23.298;2023-07-09T08:47:33;6.47;;;3.20;;
22937;SDS011;11634;42.734;23.298;2023-07-09T08:50:09;3.72;;;3.10;;
22937;SDS011;11634;42.734;23.298;2023-07-09T08:52:39;3.42;;;2.95;;
22937;SDS011;11634;42.734;23.298;2023-07-09T08:55:07;4.38;;;3.30;;
22937;SDS011;11634;42.734;23.298;2023-07-09T08:57:43;5.65;;;3.67;;
22937;SDS011;11634;42.734;23.298;2023-07-09T09:02:46;8.65;;;3.42;;
22937;SDS011;11634;42.734;23.298;2023-07-09T09:05:18;7.22;;;3.17;;
22937;SDS011;11634;42.734;23.298;2023-07-09T09:07:46;4.25;;;3.25;;
22937;SDS011;11634;42.734;23.298;2023-07-09T09:10:33;3.85;;;3.45;;
22937;SDS011;11634;42.734;23.298;2023-07-09T09:13:12;8.40;;;3.95;;
22937;SDS011;11634;42.734;23.298;2023-07-09T09:15:41;5.43;;;3.72;;
22937;SDS011;11634;42.734;23.298;2023-07-09T09:18:19;6.13;;;3.72;;
22937;SDS011;11634;42.734;23.298;2023-07-09T09:20:57;5.40;;;3.67;;
22937;SDS011;11634;42.734;23.298;2023-07-09T09:23:38;4.47;;;3.25;;
22937;SDS011;11634;42.734;23.298;2023-07-09T09:26:17;6.72;;;3.13;;
22937;SDS011;11634;42.734;23.298;2023-07-09T09:28:48;7.55;;;3.80;;
22937;SDS011;11634;42.734;23.298;2023-07-09T09:31:13;5.82;;;3.25;;
22937;SDS011;11634;42.734;23.298;2023-07-09T09:33:47;8.57;;;3.83;;
22937;SDS011;11634;42.734;23.298;2023-07-09T09:36:15;4.88;;;3.50;;
22937;SDS011;11634;42.734;23.298;2023-07-09T09:38:44;3.53;;;3.22;;
22937;SDS011;11634;42.734;23.298;2023-07-09T09:41:16;6.63;;;3.22;;
22937;SDS011;11634;42.734;23.298;2023-07-09T09:43:44;5.65;;;3.35;;
22937;SDS011;11634;42.734;23.298;2023-07-09T09:46:17;6.35;;;3.17;;
22937;SDS011;11634;42.734;23.298;2023-07-09T09:48:46;3.75;;;3.28;;
22937;SDS011;11634;42.734;23.298;2023-07-09T09:51:15;5.82;;;3.75;;
22937;SDS011;11634;42.734;23.298;2023-07-09T09:53:55;5.70;;;3.35;;
22937;SDS011;11634;42.734;23.298;2023-07-09T09:56:33;7.18;;;3.33;;
22937;SDS011;11634;42.734;23.298;2023-07-09T09:59:02;5.78;;;3.38;;
22937;SDS011;11634;42.734;23.298;2023-07-09T10:01:34;5.80;;;3.03;;
22937;SDS011;11634;42.734;23.298;2023-07-09T10:04:03;4.13;;;2.88;;
22937;SDS011;11634;42.734;23.298;2023-07-09T10:06:36;3.72;;;3.15;;
22937;SDS011;11634;42.734;23.298;2023-07-09T10:14:44;5.63;;;3.25;;
22937;SDS011;11634;42.734;23.298;2023-07-09T10:17:30;5.32;;;3.33;;
22937;SDS011;11634;42.734;23.298;2023-07-09T10:25:52;4.85;;;3.22;;
22937;SDS011;11634;42.734;23.298;2023-07-09T10:39:37;9.13;;;6.15;;
22937;SDS011;11634;42.734;23.298;2023-07-09T10:42:55;3.30;;;2.95;;
22937;SDS011;11634;42.734;23.298;2023-07-09T10:45:11;4.60;;;3.28;;
22937;SDS011;11634;42.734;23.298;2023-07-09T10:47:49;4.45;;;3.50;;
22937;SDS011;11634;42.734;23.298;2023-07-09T10:50:27;4.80;;;3.33;;
22937;SDS011;11634;42.734;23.298;2023-07-09T10:52:56;4.40;;;3.13;;
22937;SDS011;11634;42.734;23.298;2023-07-09T10:55:38;4.00;;;3.45;;
22937;SDS011;11634;42.734;23.298;2023-07-09T11:00:49;4.32;;;3.20;;
22937;SDS011;11634;42.734;23.298;2023-07-09T11:03:16;3.95;;;3.60;;
22937;SDS011;11634;42.734;23.298;2023-07-09T11:05:46;4.18;;;3.08;;
22937;SDS011;11634;42.734;23.298;2023-07-09T11:08:18;4.60;;;3.28;;
22937;SDS011;11634;42.734;23.298;2023-07-09T11:13:18;5.72;;;3.35;;
22937;SDS011;11634;42.734;23.298;2023-07-09T11:15:49;7.18;;;3.05;;
22937;SDS011;11634;42.734;23.298;2023-07-09T11:18:23;4.05;;;3.20;;
22937;SDS011;11634;42.734;23.298;2023-07-09T11:21:04;4.40;;;2.83;;
22937;SDS011;11634;42.734;23.298;2023-07-09T11:23:39;5.35;;;2.95;;
22937;SDS011;11634;42.734;23.298;2023-07-09T11:28:39;4.55;;;3.38;;
22937;SDS011;11634;42.734;23.298;2023-07-09T11:31:17;2.83;;;2.55;;
22937;SDS011;11634;42.734;23.298;2023-07-09T11:34:08;7.28;;;3.10;;
22937;SDS011;11634;42.734;23.298;2023-07-09T11:36:46;4.82;;;3.10;;
22937;SDS011;11634;42.734;23.298;2023-07-09T11:39:26;5.10;;;2.85;;
22937;SDS011;11634;42.734;23.298;2023-07-09T11:41:57;4.05;;;2.63;;
22937;SDS011;11634;42.734;23.298;2023-07-09T11:44:25;4.03;;;2.90;;
22937;SDS011;11634;42.734;23.298;2023-07-09T11:52:33;4.93;;;3.00;;
22937;SDS011;11634;42.734;23.298;2023-07-09T11:57:55;3.92;;;2.50;;
22937;SDS011;11634;42.734;23.298;2023-07-09T12:00:29;5.82;;;3.05;;
22937;SDS011;11634;42.734;23.298;2023-07-09T12:03:02;4.88;;;2.72;;
22937;SDS011;11634;42.734;23.298;2023-07-09T12:05:30;6.32;;;3.22;;
22937;SDS011;11634;42.734;23.298;2023-07-09T12:07:56;4.28;;;3.03;;
22937;SDS011;11634;42.734;23.298;2023-07-09T12:10:24;3.30;;;2.70;;
22937;SDS011;11634;42.734;23.298;2023-07-09T12:12:54;3.60;;;2.85;;
22937;SDS011;11634;42.734;23.298;2023-07-09T12:15:27;2.80;;;2.50;;
22937;SDS011;11634;42.734;23.298;2023-07-09T12:18:03;11.90;;;3.05;;
22937;SDS011;11634;42.734;23.298;2023-07-09T12:20:37;4.03;;;2.95;;
22937;SDS011;11634;42.734;23.298;2023-07-09T12:23:10;3.10;;;2.80;;
22937;SDS011;11634;42.734;23.298;2023-07-09T12:25:47;4.78;;;2.85;;
22937;SDS011;11634;42.734;23.298;2023-07-09T12:28:15;5.93;;;3.20;;
22937;SDS011;11634;42.734;23.298;2023-07-09T12:30:45;4.68;;;2.80;;
22937;SDS011;11634;42.734;23.298;2023-07-09T12:33:14;3.42;;;2.80;;
22937;SDS011;11634;42.734;23.298;2023-07-09T12:35:42;4.97;;;2.80;;
22937;SDS011;11634;42.734;23.298;2023-07-09T12:38:21;4.05;;;2.83;;
22937;SDS011;11634;42.734;23.298;2023-07-09T12:40:49;3.33;;;2.75;;
22937;SDS011;11634;42.734;23.298;2023-07-09T12:43:17;2.70;;;2.50;;
22937;SDS011;11634;42.734;23.298;2023-07-09T12:45:48;3.55;;;2.88;;
22937;SDS011;11634;42.734;23.298;2023-07-09T12:48:14;2.97;;;2.40;;
22937;SDS011;11634;42.734;23.298;2023-07-09T12:50:40;2.97;;;2.67;;
22937;SDS011;11634;42.734;23.298;2023-07-09T12:53:15;3.65;;;3.25;;
22937;SDS011;11634;42.734;23.298;2023-07-09T12:55:44;6.00;;;3.00;;
22937;SDS011;11634;42.734;23.298;2023-07-09T12:58:14;4.05;;;2.90;;
22937;SDS011;11634;42.734;23.298;2023-07-09T13:00:49;3.10;;;2.58;;
22937;SDS011;11634;42.734;23.298;2023-07-09T13:03:18;4.55;;;2.88;;
22937;SDS011;11634;42.734;23.298;2023-07-09T13:06:04;3.45;;;2.22;;
22937;SDS011;11634;42.734;23.298;2023-07-09T13:08:33;4.68;;;2.95;;
22937;SDS011;11634;42.734;23.298;2023-07-09T13:11:16;3.10;;;2.67;;
22937;SDS011;11634;42.734;23.298;2023-07-09T13:13:56;3.53;;;2.97;;
22937;SDS011;11634;42.734;23.298;2023-07-09T13:16:23;4.25;;;3.15;;
22937;SDS011;11634;42.734;23.298;2023-07-09T13:18:49;4.45;;;2.22;;
22937;SDS011;11634;42.734;23.298;2023-07-09T13:21:18;4.40;;;3.00;;
22937;SDS011;11634;42.734;23.298;2023-07-09T13:23:46;4.18;;;2.90;;
22937;SDS011;11634;42.734;23.298;2023-07-09T13:26:13;3.55;;;3.20;;
22937;SDS011;11634;42.734;23.298;2023-07-09T13:28:41;3.95;;;3.10;;
22937;SDS011;11634;42.734;23.298;2023-07-09T13:31:16;3.78;;;3.03;;
22937;SDS011;11634;42.734;23.298;2023-07-09T13:33:52;4.13;;;2.70;;
22937;SDS011;11634;42.734;23.298;2023-07-09T13:36:20;4.75;;;2.80;;
22937;SDS011;11634;42.734;23.298;2023-07-09T13:38:50;3.15;;;2.85;;
22937;SDS011;11634;42.734;23.298;2023-07-09T13:41:18;4.90;;;3.05;;
22937;SDS011;11634;42.734;23.298;2023-07-09T13:43:47;4.05;;;2.90;;
22937;SDS011;11634;42.734;23.298;2023-07-09T13:46:14;3.28;;;2.72;;
22937;SDS011;11634;42.734;23.298;2023-07-09T13:48:41;4.90;;;3.22;;
22937;SDS011;11634;42.734;23.298;2023-07-09T13:51:15;7.15;;;3.30;;
22937;SDS011;11634;42.734;23.298;2023-07-09T13:53:43;3.15;;;2.85;;
22937;SDS011;11634;42.734;23.298;2023-07-09T13:56:10;4.07;;;2.85;;
22937;SDS011;11634;42.734;23.298;2023-07-09T13:58:36;4.50;;;2.80;;
22937;SDS011;11634;42.734;23.298;2023-07-09T14:01:08;6.78;;;3.10;;
22937;SDS011;11634;42.734;23.298;2023-07-09T14:03:38;4.53;;;2.97;;
22937;SDS011;11634;42.734;23.298;2023-07-09T14:06:04;3.15;;;2.63;;
22937;SDS011;11634;42.734;23.298;2023-07-09T14:08:30;3.45;;;2.80;;
22937;SDS011;11634;42.734;23.298;2023-07-09T14:10:56;5.18;;;2.70;;
22937;SDS011;11634;42.734;23.298;2023-07-09T14:13:23;3.97;;;2.85;;
22937;SDS011;11634;42.734;23.298;2023-07-09T14:15:49;4.53;;;2.90;;
22937;SDS011;11634;42.734;23.298;2023-07-09T14:18:19;5.38;;;2.90;;
22937;SDS011;11634;42.734;23.298;2023-07-09T14:20:49;4.60;;;2.90;;
22937;SDS011;11634;42.734;23.298;2023-07-09T14:23:19;3.28;;;2.70;;
22937;SDS011;11634;42.734;23.298;2023-07-09T14:25:46;5.85;;;2.80;;
22937;SDS011;11634;42.734;23.298;2023-07-09T14:28:16;7.03;;;2.50;;
22937;SDS011;11634;42.734;23.298;2023-07-09T14:30:44;4.50;;;2.53;;
22937;SDS011;11634;42.734;23.298;2023-07-09T14:33:13;6.40;;;2.70;;
22937;SDS011;11634;42.734;23.298;2023-07-09T14:35:40;5.75;;;2.88;;
22937;SDS011;11634;42.734;23.298;2023-07-09T14:38:17;4.93;;;2.95;;
22937;SDS011;11634;42.734;23.298;2023-07-09T14:40:46;4.60;;;2.45;;
22937;SDS011;11634;42.734;23.298;2023-07-09T14:43:14;4.57;;;2.72;;
22937;SDS011;11634;42.734;23.298;2023-07-09T14:45:39;3.05;;;2.55;;
22937;SDS011;11634;42.734;23.298;2023-07-09T14:48:12;8.57;;;2.85;;
22937;SDS011;11634;42.734;23.298;2023-07-09T14:50:40;4.05;;;2.33;;
22937;SDS011;11634;42.734;23.298;2023-07-09T14:53:14;2.85;;;2.47;;
22937;SDS011;11634;42.734;23.298;2023-07-09T14:55:47;3.90;;;2.83;;
22937;SDS011;11634;42.734;23.298;2023-07-09T14:58:18;5.80;;;2.95;;
22937;SDS011;11634;42.734;23.298;2023-07-09T15:00:45;2.67;;;2.42;;
22937;SDS011;11634;42.734;23.298;2023-07-09T15:03:18;3.35;;;2.67;;
22937;SDS011;11634;42.734;23.298;2023-07-09T15:05:48;3.72;;;2.60;;
22937;SDS011;11634;42.734;23.298;2023-07-09T15:08:18;2.97;;;2.42;;
22937;SDS011;11634;42.734;23.298;2023-07-09T15:10:47;3.10;;;2.78;;
22937;SDS011;11634;42.734;23.298;2023-07-09T15:13:30;4.65;;;3.15;;
22937;SDS011;11634;42.734;23.298;2023-07-09T15:15:59;2.90;;;2.60;;
22937;SDS011;11634;42.734;23.298;2023-07-09T15:18:25;4.30;;;2.90;;
22937;SDS011;11634;42.734;23.298;2023-07-09T15:20:58;3.63;;;3.10;;
22937;SDS011;11634;42.734;23.298;2023-07-09T15:23:26;3.08;;;2.63;;
22937;SDS011;11634;42.734;23.298;2023-07-09T15:25:53;4.07;;;3.10;;
22937;SDS011;11634;42.734;23.298;2023-07-09T15:28:19;5.90;;;3.13;;
22937;SDS011;11634;42.734;23.298;2023-07-09T15:30:45;3.05;;;2.70;;
22937;SDS011;11634;42.734;23.298;2023-07-09T15:33:15;3.90;;;3.08;;